createdAt,value
2023-01-20T00:03:01.792Z,14.65
2023-01-20T00:06:04.930Z,17.77
2023-01-20T00:09:06.623Z,15.77
2023-01-20T00:12:09.208Z,14.50
2023-01-20T00:15:12.359Z,18.10
2023-01-20T00:18:15.543Z,16.55
2023-01-20T00:21:17.308Z,17.67
2023-01-20T00:24:19.949Z,16.63
2023-01-20T00:27:21.363Z,17.07
2023-01-20T00:30:24.678Z,16.05
2023-01-20T00:33:26.236Z,15.85
2023-01-20T00:36:32.483Z,15.63
2023-01-20T00:39:34.012Z,20.45
2023-01-20T00:42:37.093Z,16.50
2023-01-20T00:45:40.612Z,14.15
2023-01-20T00:48:43.392Z,15.68
2023-01-20T00:51:46.133Z,16.80
2023-01-20T00:54:47.730Z,16.88
2023-01-20T00:57:50.464Z,17.50
2023-01-20T01:00:54.407Z,15.02
2023-01-20T01:03:57.087Z,16.25
2023-01-20T01:06:59.730Z,14.77
2023-01-20T01:10:06.318Z,15.23
2023-01-20T01:13:08.260Z,15.37
2023-01-20T01:16:13.387Z,17.80
2023-01-20T01:19:18.677Z,14.70
2023-01-20T01:22:20.495Z,13.80
2023-01-20T01:25:23.266Z,16.83
2023-01-20T01:28:25.973Z,13.57
2023-01-20T01:31:28.018Z,15.98
2023-01-20T01:34:30.980Z,13.38
2023-01-20T01:37:32.327Z,16.33
2023-01-20T01:40:36.009Z,15.23
2023-01-20T01:43:38.683Z,16.80
2023-01-20T01:46:42.766Z,15.52
2023-01-20T01:49:44.513Z,13.57
2023-01-20T01:52:49.932Z,14.25
2023-01-20T01:55:55.868Z,15.23
2023-01-20T01:59:01.362Z,15.50
2023-01-20T02:02:03.536Z,15.55
2023-01-20T02:05:07.093Z,15.73
2023-01-20T02:08:10.019Z,14.40
2023-01-20T02:11:11.355Z,15.77
2023-01-20T02:14:12.687Z,13.97
2023-01-20T02:17:26.451Z,16.05
2023-01-20T02:20:50.466Z,16.73
2023-01-20T02:24:32.526Z,18.67
2023-01-20T02:28:00.377Z,14.75
2023-01-20T02:31:24.551Z,12.77
2023-01-20T02:34:32.449Z,15.43
2023-01-20T02:37:45.064Z,18.23
2023-01-20T02:40:55.376Z,17.13
2023-01-20T02:44:03.513Z,17.80
2023-01-20T02:47:13.368Z,17.93
2023-01-20T02:50:22.571Z,15.50
2023-01-20T02:53:29.695Z,14.05
2023-01-20T02:56:35.160Z,16.73
2023-01-20T02:59:42.824Z,18.35
2023-01-20T03:02:48.114Z,17.73
2023-01-20T03:05:56.528Z,17.02
2023-01-20T03:09:00.983Z,18.00
2023-01-20T03:12:12.767Z,17.20
2023-01-20T03:15:16.278Z,17.95
2023-01-20T03:18:19.066Z,17.10
2023-01-20T03:21:21.640Z,20.23
2023-01-20T03:24:25.170Z,17.00
2023-01-20T03:27:26.738Z,21.42
2023-01-20T03:30:29.406Z,18.90
2023-01-20T03:33:30.880Z,20.13
2023-01-20T03:36:35.173Z,19.88
2023-01-20T03:39:39.101Z,18.15
2023-01-20T03:42:48.221Z,21.17
2023-01-20T03:45:55.099Z,20.52
2023-01-20T03:49:07.467Z,21.93
2023-01-20T03:52:17.969Z,21.75
2023-01-20T03:55:24.976Z,18.15
2023-01-20T03:58:32.563Z,21.20
2023-01-20T04:01:36.846Z,20.80
2023-01-20T04:04:41.727Z,23.50
2023-01-20T04:07:46.586Z,20.80
2023-01-20T04:10:49.704Z,19.75
2023-01-20T04:13:52.425Z,21.80
2023-01-20T04:16:57.455Z,22.10
2023-01-20T04:20:04.755Z,21.42
2023-01-20T04:23:11.372Z,19.63
2023-01-20T04:26:12.863Z,21.38
2023-01-20T04:29:15.753Z,24.55
2023-01-20T04:32:17.328Z,22.37
2023-01-20T04:35:19.785Z,20.27
2023-01-20T04:38:21.786Z,19.20
2023-01-20T04:41:24.524Z,20.05
2023-01-20T04:44:26.331Z,21.92
2023-01-20T04:47:30.214Z,23.33
2023-01-20T04:50:31.910Z,22.58
2023-01-20T04:53:35.664Z,20.45
2023-01-20T04:56:38.418Z,19.27
2023-01-20T04:59:41.372Z,21.17
2023-01-20T05:02:42.936Z,20.77
2023-01-20T05:05:52.673Z,20.38
2023-01-20T05:08:54.898Z,23.13
2023-01-20T05:11:56.849Z,23.17
2023-01-20T05:14:58.229Z,25.88
2023-01-20T05:18:01.053Z,24.80
2023-01-20T05:21:03.885Z,22.10
2023-01-20T05:24:06.746Z,26.05
2023-01-20T05:27:08.413Z,25.88
2023-01-20T05:30:11.229Z,25.10
2023-01-20T05:33:12.567Z,27.10
2023-01-20T05:36:15.385Z,21.98
2023-01-20T05:39:17.407Z,23.58
2023-01-20T05:42:19.972Z,25.00
2023-01-20T05:45:21.230Z,23.63
2023-01-20T05:48:22.643Z,21.97
2023-01-20T05:51:25.202Z,25.38
2023-01-20T05:54:27.166Z,23.42
2023-01-20T05:57:28.568Z,23.08
2023-01-20T06:00:31.474Z,23.98
2023-01-20T06:03:32.928Z,22.87
2023-01-20T06:06:35.554Z,27.77
2023-01-20T06:09:37.509Z,27.85
2023-01-20T06:12:40.096Z,24.85
2023-01-20T06:15:41.389Z,26.63
2023-01-20T06:18:44.095Z,22.00
2023-01-20T06:21:47.177Z,22.42
2023-01-20T06:24:50.468Z,23.98
2023-01-20T06:27:51.877Z,24.00
2023-01-20T06:30:59.113Z,25.30
2023-01-20T06:40:43.435Z,21.50
2023-01-20T06:43:45.074Z,22.63
2023-01-20T06:46:48.299Z,24.83
2023-01-20T06:49:50.817Z,25.03
2023-01-20T06:52:54.685Z,25.75
2023-01-20T06:55:58.131Z,23.52
2023-01-20T06:58:59.479Z,25.55
2023-01-20T07:02:00.903Z,24.23
2023-01-20T07:05:03.881Z,20.37
2023-01-20T07:08:07.033Z,25.65
2023-01-20T07:11:09.297Z,20.77
2023-01-20T07:14:10.827Z,20.13
2023-01-20T07:17:12.565Z,22.17
2023-01-20T07:20:14.111Z,20.57
2023-01-20T07:23:16.824Z,24.88
2023-01-20T07:26:20.511Z,23.73
2023-01-20T07:29:40.925Z,21.33
2023-01-20T07:32:42.370Z,19.40
2023-01-20T07:35:45.454Z,21.87
2023-01-20T07:42:09.960Z,22.55
2023-01-20T07:45:11.476Z,22.50
2023-01-20T07:48:12.871Z,23.20
2023-01-20T07:51:15.665Z,21.73
2023-01-20T07:54:18.487Z,22.50
2023-01-20T07:57:20.809Z,26.60
2023-01-20T08:00:22.521Z,24.38
2023-01-20T08:03:27.428Z,24.70
2023-01-20T08:06:29.645Z,24.30
2023-01-20T08:09:32.139Z,21.65
2023-01-20T08:12:34.128Z,27.58
2023-01-20T08:15:35.464Z,25.13
2023-01-20T08:18:37.241Z,23.90
2023-01-20T08:21:39.792Z,24.10
2023-01-20T08:24:41.148Z,23.23
2023-01-20T08:27:44.350Z,25.08
2023-01-20T08:30:45.699Z,26.75
2023-01-20T08:33:49.456Z,24.17
2023-01-20T08:36:53.241Z,27.53
2023-01-20T08:43:17.216Z,24.67
2023-01-20T08:46:22.039Z,29.88
2023-01-20T08:52:44.580Z,27.00
2023-01-20T08:55:56.008Z,24.33
2023-01-20T08:58:58.980Z,28.30
2023-01-20T09:02:01.841Z,27.05
2023-01-20T09:08:26.233Z,28.00
2023-01-20T09:11:28.808Z,25.65
2023-01-20T09:14:32.152Z,25.70
2023-01-20T09:17:34.351Z,24.48
2023-01-20T09:20:37.775Z,28.00
2023-01-20T09:23:40.414Z,29.30
2023-01-20T09:26:42.976Z,29.02
2023-01-20T09:29:46.144Z,33.13
2023-01-20T09:32:49.075Z,29.08
2023-01-20T09:35:55.318Z,29.40
2023-01-20T09:39:14.658Z,28.33
2023-01-20T09:42:48.339Z,28.75
2023-01-20T09:45:57.568Z,28.52
2023-01-20T09:49:30.598Z,29.98
2023-01-20T09:52:54.909Z,27.10
2023-01-20T09:55:59.368Z,32.17
2023-01-20T09:59:08.075Z,28.58
2023-01-20T10:02:18.693Z,28.63
2023-01-20T10:05:23.338Z,29.85
2023-01-20T10:08:31.993Z,31.20
2023-01-20T10:11:39.109Z,27.43
2023-01-20T10:14:44.489Z,26.85
2023-01-20T10:17:52.378Z,28.20
2023-01-20T10:20:59.305Z,29.48
2023-01-20T10:24:08.399Z,29.20
2023-01-20T10:27:09.761Z,32.63
2023-01-20T10:30:14.820Z,31.25
2023-01-20T10:33:24.407Z,26.20
2023-01-20T10:36:29.019Z,26.02
2023-01-20T10:39:39.293Z,30.47
2023-01-20T10:42:41.050Z,29.87
2023-01-20T10:46:06.467Z,28.90
2023-01-20T10:49:36.741Z,24.65
2023-01-20T10:56:27.993Z,25.83
2023-01-20T10:59:34.060Z,22.17
2023-01-20T11:02:38.449Z,23.95
2023-01-20T11:05:42.899Z,24.60
2023-01-20T11:08:44.570Z,26.20
2023-01-20T11:11:48.120Z,29.67
2023-01-20T11:14:49.629Z,25.47
2023-01-20T11:18:28.315Z,25.80
2023-01-20T11:21:32.697Z,27.75
2023-01-20T11:24:42.408Z,26.58
2023-01-20T11:27:46.822Z,22.48
2023-01-20T11:30:52.818Z,24.47
2023-01-20T11:37:21.146Z,27.65
2023-01-20T11:40:24.477Z,23.70
2023-01-20T11:43:31.761Z,26.92
2023-01-20T11:46:35.671Z,30.27
2023-01-20T11:49:38.488Z,25.40
2023-01-20T11:52:42.849Z,25.15
2023-01-20T11:55:50.038Z,29.50
2023-01-20T11:58:56.548Z,25.75
2023-01-20T12:02:00.888Z,21.47
2023-01-20T12:05:10.962Z,27.60
2023-01-20T12:08:18.644Z,24.40
2023-01-20T12:11:28.474Z,23.45
2023-01-20T12:14:33.771Z,23.70
2023-01-20T12:17:51.078Z,22.30
2023-01-20T12:20:59.868Z,27.10
2023-01-20T12:24:10.005Z,25.23
2023-01-20T12:30:48.740Z,28.60
2023-01-20T12:33:56.759Z,23.50
2023-01-20T12:37:06.173Z,26.27
2023-01-20T12:40:20.483Z,25.70
2023-01-20T12:43:39.783Z,28.42
2023-01-20T12:46:45.538Z,29.35
2023-01-20T12:50:18.459Z,28.90
2023-01-20T12:53:32.068Z,23.03
2023-01-20T12:56:46.448Z,29.02
2023-01-20T13:00:11.727Z,30.02
2023-01-20T13:04:00.205Z,26.20
2023-01-20T13:07:16.852Z,23.33
2023-01-20T13:10:45.879Z,24.90
2023-01-20T13:14:03.482Z,23.42
2023-01-20T13:17:14.187Z,22.13
2023-01-20T13:20:23.695Z,22.80
2023-01-20T13:23:28.003Z,21.77
2023-01-20T13:26:30.952Z,28.13
2023-01-20T13:29:53.454Z,23.92
2023-01-20T13:33:03.473Z,22.60
2023-01-20T13:36:21.392Z,30.27
2023-01-20T13:39:40.026Z,25.37
2023-01-20T13:42:55.079Z,28.93
2023-01-20T13:46:29.701Z,22.98
2023-01-20T13:49:50.641Z,23.23
2023-01-20T13:53:25.999Z,21.58
2023-01-20T13:56:29.628Z,26.87
2023-01-20T13:59:32.273Z,28.53
2023-01-20T14:02:36.512Z,21.73
2023-01-20T14:05:40.970Z,26.08
2023-01-20T14:08:46.323Z,23.48
2023-01-20T14:11:52.648Z,22.70
2023-01-20T14:14:54.589Z,22.87
2023-01-20T14:17:58.472Z,22.45
2023-01-20T14:21:04.637Z,26.67
2023-01-20T14:24:07.469Z,22.75
2023-01-20T14:27:14.297Z,20.37
2023-01-20T14:30:20.496Z,23.10
2023-01-20T14:33:23.208Z,22.85
2023-01-20T14:36:30.315Z,24.55
2023-01-20T14:39:33.801Z,24.33
2023-01-20T14:42:39.081Z,23.63
2023-01-20T14:45:43.257Z,21.73
2023-01-20T14:48:45.811Z,26.77
2023-01-20T14:51:50.813Z,24.92
2023-01-20T14:54:55.699Z,25.48
2023-01-20T14:57:59.911Z,30.70
2023-01-20T15:01:03.920Z,27.70
2023-01-20T15:04:06.708Z,29.42
2023-01-20T15:07:17.986Z,24.58
2023-01-20T15:10:20.734Z,25.65
2023-01-20T15:13:25.308Z,23.00
2023-01-20T15:16:28.755Z,26.87
2023-01-20T15:19:33.534Z,24.40
2023-01-20T15:22:35.496Z,22.92
2023-01-20T15:25:37.203Z,24.67
2023-01-20T15:28:43.893Z,25.43
2023-01-20T15:31:45.310Z,22.63
2023-01-20T15:34:47.655Z,28.50
2023-01-20T15:37:50.327Z,29.60
2023-01-20T15:40:52.885Z,26.55
2023-01-20T15:43:55.453Z,27.70
2023-01-20T15:46:57.796Z,24.83
2023-01-20T15:50:00.409Z,23.70
2023-01-20T15:53:02.787Z,24.08
2023-01-20T15:56:05.570Z,23.97
2023-01-20T15:59:12.292Z,24.10
2023-01-20T16:02:17.903Z,22.90
2023-01-20T16:05:19.229Z,25.55
2023-01-20T16:08:23.118Z,23.00
2023-01-20T16:11:24.461Z,23.47
2023-01-20T16:17:45.554Z,24.25
2023-01-20T16:20:48.956Z,23.50
2023-01-20T16:23:50.991Z,20.00
2023-01-20T16:26:52.278Z,23.27
2023-01-20T16:29:55.175Z,21.52
2023-01-20T16:32:57.753Z,20.65
2023-01-20T16:36:00.452Z,20.85
2023-01-20T16:39:02.596Z,24.63
2023-01-20T16:42:04.082Z,22.13
2023-01-20T16:45:14.359Z,21.88
2023-01-20T16:48:15.783Z,21.88
2023-01-20T16:51:19.439Z,23.92
2023-01-20T16:54:22.706Z,26.43
2023-01-20T16:57:24.301Z,21.73
2023-01-20T17:00:25.832Z,23.83
2023-01-20T17:03:27.259Z,23.13
2023-01-20T17:06:30.232Z,26.83
2023-01-20T17:09:32.307Z,25.30
2023-01-20T17:12:34.886Z,22.00
2023-01-20T17:15:40.995Z,25.02
2023-01-20T17:18:44.784Z,24.38
2023-01-20T17:21:47.400Z,24.30
2023-01-20T17:24:49.383Z,26.37
2023-01-20T17:27:52.072Z,22.20
2023-01-20T17:30:54.460Z,21.63
2023-01-20T17:33:55.929Z,21.65
2023-01-20T17:36:57.332Z,23.17
2023-01-20T17:40:00.864Z,27.83
2023-01-20T17:43:03.478Z,24.38
2023-01-20T17:46:13.282Z,25.13
2023-01-20T17:49:14.763Z,23.45
2023-01-20T17:52:19.499Z,27.83
2023-01-20T17:55:22.700Z,23.83
2023-01-20T17:58:24.156Z,22.05
2023-01-20T18:01:28.754Z,27.88
2023-01-20T18:04:31.325Z,25.10
2023-01-20T18:07:32.685Z,25.25
2023-01-20T18:10:36.010Z,24.20
2023-01-20T18:13:39.470Z,23.38
2023-01-20T18:16:41.374Z,26.88
2023-01-20T18:19:43.062Z,25.17
2023-01-20T18:22:48.113Z,30.15
2023-01-20T18:25:53.426Z,26.03
2023-01-20T18:28:56.500Z,26.83
2023-01-20T18:32:01.915Z,24.40
2023-01-20T18:35:04.224Z,26.25
2023-01-20T18:38:07.263Z,25.33
2023-01-20T18:41:10.021Z,27.27
2023-01-20T18:44:13.027Z,24.25
2023-01-20T18:47:14.728Z,26.58
2023-01-20T18:50:18.001Z,26.70
2023-01-20T18:53:19.593Z,24.77
2023-01-20T18:56:23.396Z,27.23
2023-01-20T18:59:24.959Z,28.90
2023-01-20T19:05:47.584Z,26.57
2023-01-20T19:08:50.829Z,27.33
2023-01-20T19:11:52.834Z,26.00
2023-01-20T19:14:55.708Z,26.83
2023-01-20T19:17:57.094Z,25.35
2023-01-20T19:21:05.254Z,27.07
2023-01-20T19:24:07.259Z,25.83
2023-01-20T19:27:10.497Z,22.33
2023-01-20T19:30:12.635Z,25.08
2023-01-20T19:33:16.666Z,27.55
2023-01-20T19:36:19.315Z,25.53
2023-01-20T19:39:20.644Z,21.43
2023-01-20T19:42:24.873Z,23.63
2023-01-20T19:45:40.332Z,23.77
2023-01-20T19:48:46.364Z,29.33
2023-01-20T19:51:47.728Z,26.15
2023-01-20T19:54:51.660Z,23.13
2023-01-20T19:57:55.419Z,23.80
2023-01-20T20:01:05.523Z,25.60
2023-01-20T20:04:09.686Z,22.93
2023-01-20T20:07:12.847Z,25.02
2023-01-20T20:10:16.970Z,22.35
2023-01-20T20:13:19.326Z,24.23
2023-01-20T20:16:21.485Z,23.93
2023-01-20T20:19:24.100Z,25.37
2023-01-20T20:22:26.657Z,27.58
2023-01-20T20:25:28.004Z,25.27
2023-01-20T20:28:31.639Z,25.75
2023-01-20T20:31:36.159Z,24.37
2023-01-20T20:34:37.574Z,23.17
2023-01-20T20:37:39.992Z,26.20
2023-01-20T20:40:42.598Z,27.10
2023-01-20T20:43:45.912Z,24.40
2023-01-20T20:46:48.103Z,24.80
2023-01-20T20:49:50.891Z,23.67
2023-01-20T20:52:52.336Z,23.98
2023-01-20T20:59:23.975Z,27.30
2023-01-20T21:02:25.667Z,23.97
2023-01-20T21:05:27.051Z,23.47
2023-01-20T21:08:28.924Z,22.30
2023-01-20T21:11:30.446Z,23.58
2023-01-20T21:14:32.438Z,22.70
2023-01-20T21:17:33.745Z,24.80
2023-01-20T21:20:36.372Z,23.60
2023-01-20T21:23:39.830Z,28.33
2023-01-20T21:30:04.378Z,23.38
2023-01-20T21:33:05.796Z,20.17
2023-01-20T21:36:09.107Z,24.00
2023-01-20T21:39:11.797Z,24.50
2023-01-20T21:42:14.329Z,25.50
2023-01-20T21:45:17.658Z,25.70
2023-01-20T21:48:38.277Z,26.37
2023-01-20T21:51:59.412Z,27.33
2023-01-20T21:55:01.401Z,26.02
2023-01-20T21:58:03.971Z,23.35
2023-01-20T22:01:06.035Z,22.95
2023-01-20T22:04:08.724Z,20.33
2023-01-20T22:07:10.537Z,20.93
2023-01-20T22:10:13.669Z,18.27
2023-01-20T22:13:17.064Z,25.48
2023-01-20T22:16:19.341Z,22.75
2023-01-20T22:19:21.974Z,19.40
2023-01-20T22:22:23.294Z,20.23
2023-01-20T22:25:25.838Z,20.30
2023-01-20T22:28:30.219Z,22.45
2023-01-20T22:31:33.266Z,20.48
2023-01-20T22:34:35.802Z,18.67
2023-01-20T22:37:38.596Z,25.17
2023-01-20T22:40:39.928Z,21.27
2023-01-20T22:43:44.559Z,22.88
2023-01-20T22:46:46.542Z,21.03
2023-01-20T22:49:49.052Z,19.23
2023-01-20T22:52:50.390Z,21.60
2023-01-20T22:56:00.924Z,19.90
2023-01-20T22:59:02.606Z,18.15
2023-01-20T23:02:05.887Z,23.30
2023-01-20T23:05:07.858Z,19.97
2023-01-20T23:11:32.127Z,19.17
2023-01-20T23:14:52.683Z,18.20
2023-01-20T23:17:55.080Z,17.67
2023-01-20T23:20:58.035Z,16.37
2023-01-20T23:24:00.694Z,18.70
2023-01-20T23:27:02.012Z,15.63
2023-01-20T23:30:06.258Z,16.85
2023-01-20T23:33:09.325Z,14.93
2023-01-20T23:36:14.649Z,17.17
2023-01-20T23:39:17.251Z,15.43
2023-01-20T23:42:18.935Z,16.23
2023-01-20T23:45:21.584Z,15.23
2023-01-20T23:48:23.708Z,17.10
2023-01-20T23:51:26.353Z,14.13
2023-01-20T23:54:29.189Z,16.27
2023-01-20T23:57:30.515Z,15.48
